Maria Schulte — C4NZ2 — position and weather

sailwx.info

Track history (hours):
 
Tides and Currents Weather Stations Pressure Air Temp Water Temp Dewpoint Dewpoint Depression Visibility Wind Speed Wind Dir Waves Ship Positions

Maria Schulte

Last reported at 2018-Jan-10 06:31 UTC. Time now 2018-Jan-24 11:24 UTC.
Position N 23°58' E 118°16'.
Warning: this ship's position is 14 days out of date.

Length 231 m; draft 9.9 m.

Type: Ship (hazmat cat A). MMSI: 210346000.

Date/timePositionNaut miles runAvg speedWind from/ knotsBaromVisibWave heightAir tempDewpointWater temp
2018-Jan-10 06:31N 23°58' E 118°16'111.2
2018-Jan-10 06:27N 23°58' E 118°17'511.0
2018-Jan-10 06:00N 24°02' E 118°21'510.8
2018-Jan-10 05:30N 24°05' E 118°26'611.2
2018-Jan-10 04:58N 24°09' E 118°30'716.0
2018-Jan-10 04:30N 24°14' E 118°36'  
2018-Jan-07 12:17N 36°01' E 120°12'  
2018-Jan-04 23:46N 38°33' E 121°42'1019.5
2018-Jan-04 23:15N 38°41' E 121°49'14 0.7
2018-Jan-04 03:04N 38°54' E 121°57'2 8.9
2018-Jan-04 02:50N 38°52' E 121°57'1313.8
2018-Jan-04 01:52N 38°39' E 122°03'45313.1
2018-Jan-02 15:10N 31°06' E 122°20'315.1
2018-Jan-02 14:58N 31°07' E 122°16'814.9
2018-Jan-02 14:26N 31°12' E 122°09'614.3
2018-Jan-02 14:00N 31°14' E 122°02'714.5
2018-Jan-02 13:31N 31°16' E 121°54'713.0
2018-Jan-02 13:00N 31°18' E 121°47'7 1.5
2018-Jan-02 08:10N 31°20' E 121°39'0 1.2
2018-Jan-02 07:49N 31°20' E 121°40'14 8.8
2018-Jan-02 06:16N 31°16' E 121°55'  
Track history (hours):
 
Tides and Currents Weather Stations Pressure Air Temp Water Temp Dewpoint Dewpoint Depression Visibility Wind Speed Wind Dir Waves Ship Positions

Maria Schulte

Last reported at 2018-Jan-10 06:31 UTC. Time now 2018-Jan-24 11:24 UTC.
Position N 23°58' E 118°16'.
Warning: this ship's position is 14 days out of date.

Length 231 m; draft 9.9 m.

Type: Ship (hazmat cat A). MMSI: 210346000.

Date/timePositionNaut miles runAvg speedWind from/ knotsBaromVisibWave heightAir tempDewpointWater temp
2018-Jan-10 06:31N 23°58' E 118°16'111.2
2018-Jan-10 06:27N 23°58' E 118°17'511.0
2018-Jan-10 06:00N 24°02' E 118°21'510.8
2018-Jan-10 05:30N 24°05' E 118°26'611.2
2018-Jan-10 04:58N 24°09' E 118°30'716.0
2018-Jan-10 04:30N 24°14' E 118°36'  
2018-Jan-07 12:17N 36°01' E 120°12'  
2018-Jan-04 23:46N 38°33' E 121°42'1019.5
2018-Jan-04 23:15N 38°41' E 121°49'14 0.7
2018-Jan-04 03:04N 38°54' E 121°57'2 8.9
2018-Jan-04 02:50N 38°52' E 121°57'1313.8
2018-Jan-04 01:52N 38°39' E 122°03'45313.1
2018-Jan-02 15:10N 31°06' E 122°20'315.1
2018-Jan-02 14:58N 31°07' E 122°16'814.9
2018-Jan-02 14:26N 31°12' E 122°09'614.3
2018-Jan-02 14:00N 31°14' E 122°02'714.5
2018-Jan-02 13:31N 31°16' E 121°54'713.0
2018-Jan-02 13:00N 31°18' E 121°47'7 1.5
2018-Jan-02 08:10N 31°20' E 121°39'0 1.2
2018-Jan-02 07:49N 31°20' E 121°40'14 8.8
2018-Jan-02 06:16N 31°16' E 121°55'  

Dump ship's entire track history